• Join FlightAware (Why Join?)
  • Login
  • US Flag 
10:01AM EDT


 

Airport Tracker/Info


-or-


 

Live Flight TrackerFlight Track Log ✈ EJA922 ✈ 14-Nov-2013 ✈ KSSI - KCHO

Flight Track Log - Related Links

Times and Time Zones

All times are in EST time to prevent confusion due to time zone crossing. See the EJA922 flight status page for this flight to view local times or setup timezone preferences in your user account.

Time Position Orientation Groundspeed Altitude Reporting Facility
EST Latitude Longitude Course Direction KTS MPH feet Rate Location/Type
04:10PM 31.2464 -81.3203 66° East 344 396 6,300  Level Jacksonville Center
04:11PM 31.2747 -81.2469 66° East 300 345 9,500 3,000 Climbing Jacksonville Center
04:12PM 31.3558 -81.2092 22° Northeast 278 320 12,400 3,000 Climbing Jacksonville Center
04:13PM 31.4392 -81.2075 North 301 346 15,500 3,000 Climbing Jacksonville Center
04:14PM 31.5436 -81.2081 360° North 323 372 18,500 2,760 Climbing Jacksonville Center
04:15PM 31.6417 -81.2064 North 336 387 21,100 2,220 Climbing Jacksonville Center
04:16PM 31.7336 -81.2069 360° North 355 409 23,000 2,160 Climbing Jacksonville Center
04:17PM 31.8519 -81.1658 16° North 394 453 25,500 2,220 Climbing Jacksonville Center
04:18PM 31.9453 -81.1103 27° Northeast 404 465 27,500 2,100 Climbing Jacksonville Center
04:19PM 32.0653 -81.0319 29° Northeast 416 479 29,800 1,920 Climbing Jacksonville Center
04:20PM 32.1667 -80.9733 26° Northeast 445 512 31,400 1,560 Climbing Jacksonville Center
04:21PM 32.2947 -80.8944 28° Northeast 460 529 33,000 780 Climbing Jacksonville Center
04:22PM 32.4208 -80.8156 28° Northeast 496 571 33,000  Level Jacksonville Center
04:23PM 32.5367 -80.7414 28° Northeast 508 585 33,000  Level Jacksonville Center
04:24PM 32.6647 -80.6617 28° Northeast 514 592 33,000  Level Jacksonville Center
04:25PM 32.7925 -80.5819 28° Northeast 514 592 33,000  Level Jacksonville Center
04:26PM 32.9164 -80.5047 28° Northeast 506 582 33,000  Level Jacksonville Center
04:27PM 33.0442 -80.4244 28° Northeast 506 582 33,000  Level Jacksonville Center
04:28PM 33.1803 -80.3389 28° Northeast 507 583 33,000  Level Jacksonville Center
04:29PM 33.3061 -80.2581 28° Northeast 507 583 33,000  Level Jacksonville Center
04:30PM 33.4317 -80.1772 28° Northeast 507 583 33,000  Level Jacksonville Center
04:31PM 33.5550 -80.0986 28° Northeast 507 583 33,000  Level Jacksonville Center
04:32PM 33.6786 -80.0200 28° Northeast 501 577 33,000  Level Jacksonville Center
04:33PM 33.8019 -79.9408 30° Northeast 501 577 33,000  Level Jacksonville Center
04:34PM 33.7877 -79.9454 30° Northeast  Level FlightAware Approximate
04:34PM 33.9231 -79.8567 30° Northeast 501 577 33,000  Level Jacksonville Center
04:35PM 34.0483 -79.7797 27° Northeast 501 577 33,000  Level Jacksonville Center
04:36PM 34.1736 -79.6975 28° Northeast 501 577 33,000  Level Jacksonville Center
04:39PM 34.4467 -79.5458 25° Northeast 506 582 33,000  Level Washington Center
04:40PM 34.5761 -79.4789 23° Northeast 501 577 33,000  Level Washington Center
04:41PM 34.7075 -79.4094 23° Northeast 507 583 33,000 -360 Level Washington Center
04:42PM 34.8392 -79.3397 23° Northeast 502 578 32,300 -1,080 Descending Washington Center
04:43PM 34.9708 -79.2697 24° Northeast 508 585 30,900 -1,440 Descending Washington Center
04:44PM 35.1064 -79.1972 24° Northeast 513 590 29,500 -1,320 Descending Washington Center
04:45PM 35.2422 -79.1269 23° Northeast 518 596 28,300 -1,140 Descending Washington Center
04:46PM 35.3800 -79.0514 24° Northeast 523 602 27,200 -660 Descending Washington Center
04:47PM 35.5114 -78.9833 23° Northeast 518 596 27,000 -120 Descending Washington Center
04:48PM 35.6383 -78.9144 24° Northeast 512 589 27,000 -480 Level Washington Center
04:49PM 35.7803 -78.8358 24° Northeast 506 582 26,100 -1,020 Descending Washington Center
04:50PM 35.9156 -78.7722 21° North 501 577 25,000 -1,020 Descending Washington Center
04:51PM 36.0481 -78.7339 13° North 501 577 24,100 -540 Descending Washington Center
04:52PM 36.1825 -78.6981 12° North 496 571 24,000 -60 Descending Washington Center
04:53PM 36.3108 -78.6594 14° North 485 558 24,000  Level Washington Center
04:54PM 36.4433 -78.6233 12° North 480 552 24,000  Level Washington Center
04:55PM 36.5736 -78.5844 13° North 480 552 24,000 -480 Level Washington Center
04:56PM 36.7061 -78.5428 14° North 480 552 23,100 -1,020 Descending Washington Center
04:57PM 36.8194 -78.5083 14° North 475 547 22,000 -1,320 Descending Washington Center
04:58PM 36.9456 -78.4714 13° North 464 534 20,600 -1,560 Descending Washington Center
04:59PM 37.0694 -78.4397 12° North 459 528 18,900 -1,980 Descending Washington Center
05:00PM 37.2031 -78.4367 North 442 509 16,700 -2,160 Descending Washington Center
05:01PM 37.3156 -78.4408 358° North 425 489 14,600 -1,800 Descending Washington Center
05:02PM 37.4261 -78.4425 359° North 402 463 13,100 -840 Descending Washington Center
05:03PM 37.5283 -78.4436 360° North 402 463 13,000 -60 Descending Washington Center
05:04PM 37.6344 -78.4475 358° North 397 457 13,000 -540 Level Washington Center
05:05PM 37.7325 -78.4486 359° North 374 430 12,000 -1,200 Descending Washington Center
05:06PM 37.8161 -78.4492 360° North 333 383 10,600 -1,920 Descending Washington Center
05:07PM 37.9039 -78.4419 North 297 342 8,300 -2,040 Descending Washington Center
05:08PM 37.9756 -78.4053 22° Northeast 279 321 6,700 -1,680 Descending Washington Center
05:09PM 38.0453 -78.3683 23° Northeast 267 307 5,000 -1,140 Descending Washington Center
05:10PM 38.1064 -78.3361 23° Northeast 253 291 4,500 -1,020 Descending Washington Center
05:11PM 38.1614 -78.3092 21° North 210 242 3,000 -900 Descending Washington Center
05:12PM 38.1961 -78.3422 323° Northwest 167 192 2,700 -420 Descending Washington Center
05:13PM 38.2156 -78.3983 294° West 161 185 2,200 -600 Descending Washington Center
05:15PM 38.1667 -78.4333 209° Southwest 114 131 1,100 -600 Descending Potomac TRACON
05:17PM 38.1333 -78.4500 261° West  Level FlightAware Approximate
05:24PM 38.1396 -78.4523 261° West  Level Estimated
05:25PM 38.1333 -78.4500 261° West  Level FlightAware Approximate
05:26PM 38.1396 -78.4523 261° West  Level Estimated
05:27PM 38.1333 -78.4500 261° West  Level FlightAware Approximate
05:28PM 38.1396 -78.4523 261° West  Level Estimated
05:29PM 38.1333 -78.4500 261° West  Level FlightAware Approximate